sensor_id;sensor_type;location;lat;lon;timestamp;P1;durP1;ratioP1;P2;durP2;ratioP2
64405;SDS011;50730;48.628;8.994;2023-09-12T00:00:09;12.00;;;5.88;;
64405;SDS011;50730;48.628;8.994;2023-09-12T00:02:38;17.60;;;6.70;;
64405;SDS011;50730;48.628;8.994;2023-09-12T00:05:05;10.20;;;5.85;;
64405;SDS011;50730;48.628;8.994;2023-09-12T00:07:32;8.38;;;5.70;;
64405;SDS011;50730;48.628;8.994;2023-09-12T00:09:59;11.85;;;6.25;;
64405;SDS011;50730;48.628;8.994;2023-09-12T00:12:27;10.55;;;5.53;;
64405;SDS011;50730;48.628;8.994;2023-09-12T00:14:54;11.18;;;5.45;;
64405;SDS011;50730;48.628;8.994;2023-09-12T00:17:21;10.30;;;5.90;;
64405;SDS011;50730;48.628;8.994;2023-09-12T00:19:49;13.10;;;5.43;;
64405;SDS011;50730;48.628;8.994;2023-09-12T00:22:17;11.63;;;5.75;;
64405;SDS011;50730;48.628;8.994;2023-09-12T00:24:44;10.63;;;6.10;;
64405;SDS011;50730;48.628;8.994;2023-09-12T00:27:11;8.65;;;5.55;;
64405;SDS011;50730;48.628;8.994;2023-09-12T00:29:38;9.30;;;5.78;;
64405;SDS011;50730;48.628;8.994;2023-09-12T00:32:05;10.90;;;6.47;;
64405;SDS011;50730;48.628;8.994;2023-09-12T00:34:32;8.90;;;5.85;;
64405;SDS011;50730;48.628;8.994;2023-09-12T00:37:01;9.05;;;6.28;;
64405;SDS011;50730;48.628;8.994;2023-09-12T00:39:28;13.63;;;6.07;;
64405;SDS011;50730;48.628;8.994;2023-09-12T00:41:55;12.77;;;5.90;;
64405;SDS011;50730;48.628;8.994;2023-09-12T00:44:22;13.77;;;5.72;;
64405;SDS011;50730;48.628;8.994;2023-09-12T00:46:49;10.88;;;5.82;;
64405;SDS011;50730;48.628;8.994;2023-09-12T00:49:17;11.13;;;6.03;;
64405;SDS011;50730;48.628;8.994;2023-09-12T00:51:45;10.43;;;6.25;;
64405;SDS011;50730;48.628;8.994;2023-09-12T00:54:14;11.88;;;6.18;;
64405;SDS011;50730;48.628;8.994;2023-09-12T00:56:41;11.07;;;5.60;;
64405;SDS011;50730;48.628;8.994;2023-09-12T00:59:09;12.43;;;6.10;;
64405;SDS011;50730;48.628;8.994;2023-09-12T01:01:37;14.02;;;6.38;;
64405;SDS011;50730;48.628;8.994;2023-09-12T01:04:04;8.73;;;6.03;;
64405;SDS011;50730;48.628;8.994;2023-09-12T01:06:33;14.15;;;5.95;;
64405;SDS011;50730;48.628;8.994;2023-09-12T01:09:00;8.43;;;5.70;;
64405;SDS011;50730;48.628;8.994;2023-09-12T01:11:29;12.77;;;6.68;;
64405;SDS011;50730;48.628;8.994;2023-09-12T01:13:56;10.93;;;5.60;;
64405;SDS011;50730;48.628;8.994;2023-09-12T01:16:23;10.60;;;5.72;;
64405;SDS011;50730;48.628;8.994;2023-09-12T01:18:50;11.00;;;5.78;;
64405;SDS011;50730;48.628;8.994;2023-09-12T01:21:28;12.23;;;5.35;;
64405;SDS011;50730;48.628;8.994;2023-09-12T01:24:04;12.70;;;5.90;;
64405;SDS011;50730;48.628;8.994;2023-09-12T01:26:39;10.50;;;6.18;;
64405;SDS011;50730;48.628;8.994;2023-09-12T01:29:09;13.68;;;5.80;;
64405;SDS011;50730;48.628;8.994;2023-09-12T01:31:38;14.00;;;6.03;;
64405;SDS011;50730;48.628;8.994;2023-09-12T01:34:08;11.55;;;6.45;;
64405;SDS011;50730;48.628;8.994;2023-09-12T01:36:36;15.68;;;7.00;;
64405;SDS011;50730;48.628;8.994;2023-09-12T01:39:03;12.07;;;6.97;;
64405;SDS011;50730;48.628;8.994;2023-09-12T01:41:31;13.75;;;6.22;;
64405;SDS011;50730;48.628;8.994;2023-09-12T01:43:58;11.82;;;5.47;;
64405;SDS011;50730;48.628;8.994;2023-09-12T01:46:27;11.45;;;6.07;;
64405;SDS011;50730;48.628;8.994;2023-09-12T01:48:55;9.73;;;5.63;;
64405;SDS011;50730;48.628;8.994;2023-09-12T01:51:22;9.35;;;5.60;;
64405;SDS011;50730;48.628;8.994;2023-09-12T01:53:50;11.02;;;5.63;;
64405;SDS011;50730;48.628;8.994;2023-09-12T01:56:17;9.60;;;5.75;;
64405;SDS011;50730;48.628;8.994;2023-09-12T01:58:45;14.98;;;5.65;;
64405;SDS011;50730;48.628;8.994;2023-09-12T02:01:12;10.15;;;6.43;;
64405;SDS011;50730;48.628;8.994;2023-09-12T02:03:41;9.68;;;5.85;;
64405;SDS011;50730;48.628;8.994;2023-09-12T02:06:08;11.05;;;5.75;;
64405;SDS011;50730;48.628;8.994;2023-09-12T02:08:35;12.75;;;5.78;;
64405;SDS011;50730;48.628;8.994;2023-09-12T02:11:02;10.48;;;6.43;;
64405;SDS011;50730;48.628;8.994;2023-09-12T02:13:29;9.68;;;5.13;;
64405;SDS011;50730;48.628;8.994;2023-09-12T02:15:59;9.48;;;5.68;;
64405;SDS011;50730;48.628;8.994;2023-09-12T02:18:28;12.93;;;5.85;;
64405;SDS011;50730;48.628;8.994;2023-09-12T02:20:56;10.10;;;5.70;;
64405;SDS011;50730;48.628;8.994;2023-09-12T02:23:24;9.82;;;6.53;;
64405;SDS011;50730;48.628;8.994;2023-09-12T02:25:52;11.38;;;5.63;;
64405;SDS011;50730;48.628;8.994;2023-09-12T02:28:19;10.68;;;6.30;;
64405;SDS011;50730;48.628;8.994;2023-09-12T02:30:46;12.60;;;6.18;;
64405;SDS011;50730;48.628;8.994;2023-09-12T02:33:13;12.95;;;5.80;;
64405;SDS011;50730;48.628;8.994;2023-09-12T02:35:40;8.70;;;5.40;;
64405;SDS011;50730;48.628;8.994;2023-09-12T02:38:09;12.13;;;6.28;;
64405;SDS011;50730;48.628;8.994;2023-09-12T02:40:36;12.13;;;6.68;;
64405;SDS011;50730;48.628;8.994;2023-09-12T02:43:03;9.98;;;6.43;;
64405;SDS011;50730;48.628;8.994;2023-09-12T02:45:30;15.82;;;7.35;;
64405;SDS011;50730;48.628;8.994;2023-09-12T02:47:58;14.65;;;6.88;;
64405;SDS011;50730;48.628;8.994;2023-09-12T02:50:25;12.35;;;6.47;;
64405;SDS011;50730;48.628;8.994;2023-09-12T02:52:52;10.77;;;6.13;;
64405;SDS011;50730;48.628;8.994;2023-09-12T02:55:20;11.80;;;6.32;;
64405;SDS011;50730;48.628;8.994;2023-09-12T02:57:47;10.80;;;6.50;;
64405;SDS011;50730;48.628;8.994;2023-09-12T03:02:50;16.10;;;7.47;;
64405;SDS011;50730;48.628;8.994;2023-09-12T03:05:17;12.13;;;7.10;;
64405;SDS011;50730;48.628;8.994;2023-09-12T03:07:45;16.80;;;7.20;;
64405;SDS011;50730;48.628;8.994;2023-09-12T03:10:12;12.57;;;7.00;;
64405;SDS011;50730;48.628;8.994;2023-09-12T03:12:40;10.73;;;6.63;;
64405;SDS011;50730;48.628;8.994;2023-09-12T03:15:08;13.73;;;7.07;;
64405;SDS011;50730;48.628;8.994;2023-09-12T03:17:35;12.43;;;6.75;;
64405;SDS011;50730;48.628;8.994;2023-09-12T03:20:03;16.70;;;7.18;;
64405;SDS011;50730;48.628;8.994;2023-09-12T03:22:32;15.80;;;7.75;;
64405;SDS011;50730;48.628;8.994;2023-09-12T03:25:02;13.82;;;7.55;;
64405;SDS011;50730;48.628;8.994;2023-09-12T03:27:30;11.15;;;7.47;;
64405;SDS011;50730;48.628;8.994;2023-09-12T03:29:59;14.95;;;7.80;;
64405;SDS011;50730;48.628;8.994;2023-09-12T03:32:26;13.95;;;7.53;;
64405;SDS011;50730;48.628;8.994;2023-09-12T03:34:53;16.45;;;9.35;;
64405;SDS011;50730;48.628;8.994;2023-09-12T03:37:20;16.00;;;8.88;;
64405;SDS011;50730;48.628;8.994;2023-09-12T03:39:47;12.90;;;8.30;;
64405;SDS011;50730;48.628;8.994;2023-09-12T03:42:15;18.83;;;8.70;;
64405;SDS011;50730;48.628;8.994;2023-09-12T03:44:42;14.07;;;8.43;;
64405;SDS011;50730;48.628;8.994;2023-09-12T03:47:10;16.67;;;7.97;;
64405;SDS011;50730;48.628;8.994;2023-09-12T03:49:37;13.73;;;8.60;;
64405;SDS011;50730;48.628;8.994;2023-09-12T03:52:05;14.70;;;7.95;;
64405;SDS011;50730;48.628;8.994;2023-09-12T03:54:32;15.52;;;9.35;;
64405;SDS011;50730;48.628;8.994;2023-09-12T03:56:59;15.00;;;8.27;;
64405;SDS011;50730;48.628;8.994;2023-09-12T03:59:26;11.70;;;7.47;;
64405;SDS011;50730;48.628;8.994;2023-09-12T04:01:53;11.90;;;7.82;;
64405;SDS011;50730;48.628;8.994;2023-09-12T04:04:22;13.80;;;7.93;;
64405;SDS011;50730;48.628;8.994;2023-09-12T04:06:49;19.13;;;8.85;;
64405;SDS011;50730;48.628;8.994;2023-09-12T04:09:16;13.77;;;8.05;;
64405;SDS011;50730;48.628;8.994;2023-09-12T04:11:43;15.68;;;8.48;;
64405;SDS011;50730;48.628;8.994;2023-09-12T04:14:10;13.73;;;7.93;;
64405;SDS011;50730;48.628;8.994;2023-09-12T04:16:37;13.95;;;8.13;;
64405;SDS011;50730;48.628;8.994;2023-09-12T04:19:04;12.85;;;7.32;;
64405;SDS011;50730;48.628;8.994;2023-09-12T04:21:33;14.80;;;8.15;;
64405;SDS011;50730;48.628;8.994;2023-09-12T04:24:00;15.00;;;8.68;;
64405;SDS011;50730;48.628;8.994;2023-09-12T04:26:27;13.15;;;7.90;;
64405;SDS011;50730;48.628;8.994;2023-09-12T04:28:54;17.70;;;8.68;;
64405;SDS011;50730;48.628;8.994;2023-09-12T04:31:21;11.20;;;8.32;;
64405;SDS011;50730;48.628;8.994;2023-09-12T04:33:50;15.55;;;8.00;;
64405;SDS011;50730;48.628;8.994;2023-09-12T04:36:17;12.18;;;7.97;;
64405;SDS011;50730;48.628;8.994;2023-09-12T04:38:46;11.38;;;7.85;;
64405;SDS011;50730;48.628;8.994;2023-09-12T04:41:13;11.98;;;7.90;;
64405;SDS011;50730;48.628;8.994;2023-09-12T04:43:42;16.75;;;7.85;;
64405;SDS011;50730;48.628;8.994;2023-09-12T04:46:09;12.48;;;7.93;;
64405;SDS011;50730;48.628;8.994;2023-09-12T04:48:36;13.00;;;8.20;;
64405;SDS011;50730;48.628;8.994;2023-09-12T04:51:04;13.40;;;7.82;;
64405;SDS011;50730;48.628;8.994;2023-09-12T04:53:31;17.40;;;8.15;;
64405;SDS011;50730;48.628;8.994;2023-09-12T04:56:01;11.32;;;7.80;;
64405;SDS011;50730;48.628;8.994;2023-09-12T04:58:28;11.68;;;7.95;;
64405;SDS011;50730;48.628;8.994;2023-09-12T05:00:56;15.20;;;8.32;;
64405;SDS011;50730;48.628;8.994;2023-09-12T05:03:23;14.07;;;8.38;;
64405;SDS011;50730;48.628;8.994;2023-09-12T05:05:50;15.80;;;8.82;;
64405;SDS011;50730;48.628;8.994;2023-09-12T05:08:17;13.10;;;8.25;;
64405;SDS011;50730;48.628;8.994;2023-09-12T05:10:44;15.65;;;8.20;;
64405;SDS011;50730;48.628;8.994;2023-09-12T05:13:13;12.68;;;7.65;;
64405;SDS011;50730;48.628;8.994;2023-09-12T05:15:40;15.90;;;8.15;;
64405;SDS011;50730;48.628;8.994;2023-09-12T05:18:08;13.75;;;8.43;;
64405;SDS011;50730;48.628;8.994;2023-09-12T05:20:35;13.98;;;8.68;;
64405;SDS011;50730;48.628;8.994;2023-09-12T05:23:03;12.98;;;7.85;;
64405;SDS011;50730;48.628;8.994;2023-09-12T05:25:30;14.00;;;7.40;;
64405;SDS011;50730;48.628;8.994;2023-09-12T05:27:57;11.63;;;7.75;;
64405;SDS011;50730;48.628;8.994;2023-09-12T05:30:25;11.98;;;7.63;;
64405;SDS011;50730;48.628;8.994;2023-09-12T05:32:52;14.63;;;8.02;;
64405;SDS011;50730;48.628;8.994;2023-09-12T05:35:20;16.15;;;7.35;;
64405;SDS011;50730;48.628;8.994;2023-09-12T05:37:47;12.35;;;6.90;;
64405;SDS011;50730;48.628;8.994;2023-09-12T05:40:14;12.10;;;6.80;;
64405;SDS011;50730;48.628;8.994;2023-09-12T05:42:41;10.80;;;6.93;;
64405;SDS011;50730;48.628;8.994;2023-09-12T05:45:08;14.27;;;7.00;;
64405;SDS011;50730;48.628;8.994;2023-09-12T05:47:37;16.92;;;6.88;;
64405;SDS011;50730;48.628;8.994;2023-09-12T05:50:04;9.23;;;6.40;;
64405;SDS011;50730;48.628;8.994;2023-09-12T05:52:32;11.25;;;7.05;;
64405;SDS011;50730;48.628;8.994;2023-09-12T05:54:59;9.88;;;6.80;;
64405;SDS011;50730;48.628;8.994;2023-09-12T05:57:26;10.05;;;6.97;;
64405;SDS011;50730;48.628;8.994;2023-09-12T05:59:53;11.25;;;6.82;;
64405;SDS011;50730;48.628;8.994;2023-09-12T06:02:20;10.60;;;6.43;;
64405;SDS011;50730;48.628;8.994;2023-09-12T06:04:48;11.93;;;6.95;;
64405;SDS011;50730;48.628;8.994;2023-09-12T06:07:16;12.13;;;7.93;;
64405;SDS011;50730;48.628;8.994;2023-09-12T06:09:44;10.55;;;6.88;;
64405;SDS011;50730;48.628;8.994;2023-09-12T06:12:12;10.82;;;6.88;;
64405;SDS011;50730;48.628;8.994;2023-09-12T06:14:39;10.90;;;7.07;;
64405;SDS011;50730;48.628;8.994;2023-09-12T06:17:06;12.95;;;7.30;;
64405;SDS011;50730;48.628;8.994;2023-09-12T06:19:33;11.77;;;6.32;;
64405;SDS011;50730;48.628;8.994;2023-09-12T06:22:02;9.70;;;6.55;;
64405;SDS011;50730;48.628;8.994;2023-09-12T06:24:29;11.48;;;6.93;;
64405;SDS011;50730;48.628;8.994;2023-09-12T06:26:56;10.85;;;7.07;;
64405;SDS011;50730;48.628;8.994;2023-09-12T06:29:23;8.63;;;6.70;;
64405;SDS011;50730;48.628;8.994;2023-09-12T06:31:50;10.25;;;6.28;;
64405;SDS011;50730;48.628;8.994;2023-09-12T06:34:17;9.70;;;6.47;;
64405;SDS011;50730;48.628;8.994;2023-09-12T06:36:44;9.57;;;6.60;;
64405;SDS011;50730;48.628;8.994;2023-09-12T06:39:13;10.57;;;6.95;;
64405;SDS011;50730;48.628;8.994;2023-09-12T06:41:40;8.18;;;6.28;;
64405;SDS011;50730;48.628;8.994;2023-09-12T06:44:07;12.00;;;7.28;;
64405;SDS011;50730;48.628;8.994;2023-09-12T06:46:34;8.98;;;6.32;;
64405;SDS011;50730;48.628;8.994;2023-09-12T06:49:02;10.45;;;6.68;;
64405;SDS011;50730;48.628;8.994;2023-09-12T06:51:29;10.32;;;6.43;;
64405;SDS011;50730;48.628;8.994;2023-09-12T06:53:56;13.43;;;7.15;;
64405;SDS011;50730;48.628;8.994;2023-09-12T06:56:25;11.38;;;6.40;;
64405;SDS011;50730;48.628;8.994;2023-09-12T06:58:53;12.35;;;6.35;;
64405;SDS011;50730;48.628;8.994;2023-09-12T07:01:20;14.45;;;6.88;;
64405;SDS011;50730;48.628;8.994;2023-09-12T07:03:48;9.88;;;6.90;;
64405;SDS011;50730;48.628;8.994;2023-09-12T07:06:18;7.40;;;5.90;;
64405;SDS011;50730;48.628;8.994;2023-09-12T07:08:45;9.00;;;6.25;;
64405;SDS011;50730;48.628;8.994;2023-09-12T07:11:13;16.67;;;7.35;;
64405;SDS011;50730;48.628;8.994;2023-09-12T07:13:41;10.95;;;6.75;;
64405;SDS011;50730;48.628;8.994;2023-09-12T07:16:08;13.40;;;7.13;;
64405;SDS011;50730;48.628;8.994;2023-09-12T07:18:35;8.50;;;6.32;;
64405;SDS011;50730;48.628;8.994;2023-09-12T07:21:03;10.23;;;6.28;;
64405;SDS011;50730;48.628;8.994;2023-09-12T07:23:30;9.50;;;5.93;;
64405;SDS011;50730;48.628;8.994;2023-09-12T07:25:58;8.95;;;6.35;;
64405;SDS011;50730;48.628;8.994;2023-09-12T07:28:25;8.98;;;6.65;;
64405;SDS011;50730;48.628;8.994;2023-09-12T07:30:54;10.82;;;6.82;;
64405;SDS011;50730;48.628;8.994;2023-09-12T07:33:21;9.02;;;6.40;;
64405;SDS011;50730;48.628;8.994;2023-09-12T07:35:49;9.85;;;6.72;;
64405;SDS011;50730;48.628;8.994;2023-09-12T07:38:18;10.85;;;6.25;;
64405;SDS011;50730;48.628;8.994;2023-09-12T07:40:45;8.57;;;6.35;;
64405;SDS011;50730;48.628;8.994;2023-09-12T07:45:58;9.57;;;6.82;;
64405;SDS011;50730;48.628;8.994;2023-09-12T07:48:25;14.35;;;6.35;;
64405;SDS011;50730;48.628;8.994;2023-09-12T07:50:53;7.57;;;6.20;;
64405;SDS011;50730;48.628;8.994;2023-09-12T07:53:20;8.35;;;6.10;;
64405;SDS011;50730;48.628;8.994;2023-09-12T07:55:47;9.85;;;6.30;;
64405;SDS011;50730;48.628;8.994;2023-09-12T07:58:16;11.68;;;5.75;;
64405;SDS011;50730;48.628;8.994;2023-09-12T08:00:44;10.25;;;5.78;;
64405;SDS011;50730;48.628;8.994;2023-09-12T08:03:12;8.48;;;6.00;;
64405;SDS011;50730;48.628;8.994;2023-09-12T08:05:40;7.68;;;5.50;;
64405;SDS011;50730;48.628;8.994;2023-09-12T08:08:07;8.80;;;6.10;;
64405;SDS011;50730;48.628;8.994;2023-09-12T08:10:34;10.35;;;6.00;;
64405;SDS011;50730;48.628;8.994;2023-09-12T08:13:01;8.68;;;5.63;;
64405;SDS011;50730;48.628;8.994;2023-09-12T08:15:28;9.52;;;6.78;;
64405;SDS011;50730;48.628;8.994;2023-09-12T08:17:55;9.25;;;6.35;;
64405;SDS011;50730;48.628;8.994;2023-09-12T08:20:24;9.45;;;6.95;;
64405;SDS011;50730;48.628;8.994;2023-09-12T08:22:51;11.00;;;6.07;;
64405;SDS011;50730;48.628;8.994;2023-09-12T08:25:18;10.10;;;5.90;;
64405;SDS011;50730;48.628;8.994;2023-09-12T08:27:45;10.48;;;5.70;;
64405;SDS011;50730;48.628;8.994;2023-09-12T08:30:12;9.13;;;5.50;;
64405;SDS011;50730;48.628;8.994;2023-09-12T08:32:40;9.32;;;5.00;;
64405;SDS011;50730;48.628;8.994;2023-09-12T08:35:09;9.32;;;4.72;;
64405;SDS011;50730;48.628;8.994;2023-09-12T08:37:38;7.28;;;5.10;;
64405;SDS011;50730;48.628;8.994;2023-09-12T08:40:06;6.75;;;4.40;;
64405;SDS011;50730;48.628;8.994;2023-09-12T08:42:35;7.53;;;4.68;;
64405;SDS011;50730;48.628;8.994;2023-09-12T08:45:05;7.45;;;5.07;;
64405;SDS011;50730;48.628;8.994;2023-09-12T08:47:33;6.22;;;4.70;;
64405;SDS011;50730;48.628;8.994;2023-09-12T08:50:02;6.32;;;4.68;;
64405;SDS011;50730;48.628;8.994;2023-09-12T08:52:29;8.90;;;4.78;;
64405;SDS011;50730;48.628;8.994;2023-09-12T08:54:58;7.65;;;4.60;;
64405;SDS011;50730;48.628;8.994;2023-09-12T08:57:25;5.32;;;4.38;;
64405;SDS011;50730;48.628;8.994;2023-09-12T08:59:53;9.15;;;5.35;;
64405;SDS011;50730;48.628;8.994;2023-09-12T09:02:20;8.43;;;5.00;;
64405;SDS011;50730;48.628;8.994;2023-09-12T09:04:48;6.90;;;4.57;;
64405;SDS011;50730;48.628;8.994;2023-09-12T09:07:15;6.95;;;4.43;;
64405;SDS011;50730;48.628;8.994;2023-09-12T09:09:43;6.57;;;3.70;;
64405;SDS011;50730;48.628;8.994;2023-09-12T09:12:12;7.50;;;4.50;;
64405;SDS011;50730;48.628;8.994;2023-09-12T09:14:39;7.85;;;4.70;;
64405;SDS011;50730;48.628;8.994;2023-09-12T09:17:07;6.68;;;4.43;;
64405;SDS011;50730;48.628;8.994;2023-09-12T09:19:42;6.65;;;4.05;;
64405;SDS011;50730;48.628;8.994;2023-09-12T09:22:10;7.32;;;4.50;;
64405;SDS011;50730;48.628;8.994;2023-09-12T09:24:37;8.80;;;4.40;;
64405;SDS011;50730;48.628;8.994;2023-09-12T09:27:04;8.55;;;4.82;;
64405;SDS011;50730;48.628;8.994;2023-09-12T09:29:32;5.13;;;4.47;;
64405;SDS011;50730;48.628;8.994;2023-09-12T09:32:16;7.38;;;4.70;;
64405;SDS011;50730;48.628;8.994;2023-09-12T09:34:43;8.15;;;4.22;;
64405;SDS011;50730;48.628;8.994;2023-09-12T09:37:11;6.97;;;4.20;;
64405;SDS011;50730;48.628;8.994;2023-09-12T09:39:40;7.15;;;4.22;;
64405;SDS011;50730;48.628;8.994;2023-09-12T09:42:09;7.78;;;4.28;;
64405;SDS011;50730;48.628;8.994;2023-09-12T09:44:38;10.57;;;4.22;;
64405;SDS011;50730;48.628;8.994;2023-09-12T09:47:06;5.25;;;3.67;;
64405;SDS011;50730;48.628;8.994;2023-09-12T09:49:34;5.07;;;3.80;;
64405;SDS011;50730;48.628;8.994;2023-09-12T09:52:03;5.50;;;3.78;;
64405;SDS011;50730;48.628;8.994;2023-09-12T09:54:30;9.05;;;3.88;;
64405;SDS011;50730;48.628;8.994;2023-09-12T09:56:57;6.40;;;3.55;;
64405;SDS011;50730;48.628;8.994;2023-09-12T09:59:25;8.25;;;4.07;;
64405;SDS011;50730;48.628;8.994;2023-09-12T10:01:55;6.82;;;4.32;;
64405;SDS011;50730;48.628;8.994;2023-09-12T10:07:25;7.68;;;3.67;;
64405;SDS011;50730;48.628;8.994;2023-09-12T10:09:54;5.72;;;3.95;;
64405;SDS011;50730;48.628;8.994;2023-09-12T10:12:22;8.45;;;3.65;;
64405;SDS011;50730;48.628;8.994;2023-09-12T10:14:49;6.30;;;3.88;;
64405;SDS011;50730;48.628;8.994;2023-09-12T10:17:18;7.82;;;3.50;;
64405;SDS011;50730;48.628;8.994;2023-09-12T10:19:49;5.38;;;4.00;;
64405;SDS011;50730;48.628;8.994;2023-09-12T10:22:20;8.45;;;3.65;;
64405;SDS011;50730;48.628;8.994;2023-09-12T10:24:48;7.53;;;3.53;;
64405;SDS011;50730;48.628;8.994;2023-09-12T10:27:15;6.93;;;3.97;;
64405;SDS011;50730;48.628;8.994;2023-09-12T10:29:43;5.85;;;3.20;;
64405;SDS011;50730;48.628;8.994;2023-09-12T10:32:12;7.13;;;3.88;;
64405;SDS011;50730;48.628;8.994;2023-09-12T10:34:42;6.03;;;4.13;;
64405;SDS011;50730;48.628;8.994;2023-09-12T10:37:12;8.52;;;3.78;;
64405;SDS011;50730;48.628;8.994;2023-09-12T10:39:42;8.57;;;4.28;;
64405;SDS011;50730;48.628;8.994;2023-09-12T10:42:09;10.75;;;3.95;;
64405;SDS011;50730;48.628;8.994;2023-09-12T10:44:38;7.18;;;3.95;;
64405;SDS011;50730;48.628;8.994;2023-09-12T10:49:51;7.95;;;4.25;;
64405;SDS011;50730;48.628;8.994;2023-09-12T10:52:23;8.20;;;4.40;;
64405;SDS011;50730;48.628;8.994;2023-09-12T10:54:51;8.57;;;4.35;;
64405;SDS011;50730;48.628;8.994;2023-09-12T10:57:18;7.85;;;4.00;;
64405;SDS011;50730;48.628;8.994;2023-09-12T11:02:33;5.07;;;4.07;;
64405;SDS011;50730;48.628;8.994;2023-09-12T11:05:03;8.07;;;4.40;;
64405;SDS011;50730;48.628;8.994;2023-09-12T11:07:50;7.13;;;3.78;;
64405;SDS011;50730;48.628;8.994;2023-09-12T11:10:19;8.88;;;4.45;;
64405;SDS011;50730;48.628;8.994;2023-09-12T11:12:47;7.32;;;4.60;;
64405;SDS011;50730;48.628;8.994;2023-09-12T11:15:14;9.02;;;4.00;;
64405;SDS011;50730;48.628;8.994;2023-09-12T11:17:42;5.28;;;4.13;;
64405;SDS011;50730;48.628;8.994;2023-09-12T11:20:11;9.05;;;4.20;;
64405;SDS011;50730;48.628;8.994;2023-09-12T11:22:39;5.60;;;3.90;;
64405;SDS011;50730;48.628;8.994;2023-09-12T11:28:04;10.88;;;4.32;;
64405;SDS011;50730;48.628;8.994;2023-09-12T11:30:31;6.78;;;4.25;;
64405;SDS011;50730;48.628;8.994;2023-09-12T11:33:01;7.78;;;3.67;;
64405;SDS011;50730;48.628;8.994;2023-09-12T11:35:35;6.05;;;4.05;;
64405;SDS011;50730;48.628;8.994;2023-09-12T11:38:03;5.82;;;3.72;;
64405;SDS011;50730;48.628;8.994;2023-09-12T11:40:41;6.65;;;3.85;;
64405;SDS011;50730;48.628;8.994;2023-09-12T11:43:08;5.80;;;3.97;;
64405;SDS011;50730;48.628;8.994;2023-09-12T11:45:44;8.07;;;4.22;;
64405;SDS011;50730;48.628;8.994;2023-09-12T11:48:11;5.78;;;4.18;;
64405;SDS011;50730;48.628;8.994;2023-09-12T11:50:41;6.45;;;3.63;;
64405;SDS011;50730;48.628;8.994;2023-09-12T11:53:09;6.35;;;4.22;;
64405;SDS011;50730;48.628;8.994;2023-09-12T11:55:37;6.75;;;4.45;;
64405;SDS011;50730;48.628;8.994;2023-09-12T11:58:05;5.43;;;4.07;;
64405;SDS011;50730;48.628;8.994;2023-09-12T12:00:32;8.25;;;4.00;;
64405;SDS011;50730;48.628;8.994;2023-09-12T12:03:00;7.35;;;4.15;;
64405;SDS011;50730;48.628;8.994;2023-09-12T12:05:27;7.07;;;4.05;;
64405;SDS011;50730;48.628;8.994;2023-09-12T12:07:57;5.20;;;3.78;;
64405;SDS011;50730;48.628;8.994;2023-09-12T12:10:25;8.10;;;3.63;;
64405;SDS011;50730;48.628;8.994;2023-09-12T12:12:53;7.22;;;4.13;;
64405;SDS011;50730;48.628;8.994;2023-09-12T12:15:20;6.72;;;3.97;;
64405;SDS011;50730;48.628;8.994;2023-09-12T12:17:47;8.25;;;3.80;;
64405;SDS011;50730;48.628;8.994;2023-09-12T12:20:14;6.00;;;3.50;;
64405;SDS011;50730;48.628;8.994;2023-09-12T12:22:41;6.72;;;3.53;;
64405;SDS011;50730;48.628;8.994;2023-09-12T12:25:10;11.10;;;4.20;;
64405;SDS011;50730;48.628;8.994;2023-09-12T12:27:38;6.00;;;3.78;;
64405;SDS011;50730;48.628;8.994;2023-09-12T12:30:06;4.55;;;3.28;;
64405;SDS011;50730;48.628;8.994;2023-09-12T12:32:34;4.95;;;3.40;;
64405;SDS011;50730;48.628;8.994;2023-09-12T12:35:03;6.45;;;3.95;;
64405;SDS011;50730;48.628;8.994;2023-09-12T12:37:32;5.75;;;3.70;;
64405;SDS011;50730;48.628;8.994;2023-09-12T12:40:01;5.38;;;3.60;;
64405;SDS011;50730;48.628;8.994;2023-09-12T12:42:35;5.30;;;3.72;;
64405;SDS011;50730;48.628;8.994;2023-09-12T12:45:05;6.03;;;3.80;;
64405;SDS011;50730;48.628;8.994;2023-09-12T12:47:37;5.65;;;3.95;;
64405;SDS011;50730;48.628;8.994;2023-09-12T12:50:07;7.50;;;4.20;;
64405;SDS011;50730;48.628;8.994;2023-09-12T12:52:34;5.47;;;3.60;;
64405;SDS011;50730;48.628;8.994;2023-09-12T12:55:06;5.57;;;3.85;;
64405;SDS011;50730;48.628;8.994;2023-09-12T12:57:36;5.35;;;3.67;;
64405;SDS011;50730;48.628;8.994;2023-09-12T13:00:07;5.50;;;4.00;;
64405;SDS011;50730;48.628;8.994;2023-09-12T13:02:36;5.88;;;3.90;;
64405;SDS011;50730;48.628;8.994;2023-09-12T13:05:03;5.05;;;4.07;;
64405;SDS011;50730;48.628;8.994;2023-09-12T13:07:33;6.65;;;4.32;;
64405;SDS011;50730;48.628;8.994;2023-09-12T13:10:00;6.45;;;4.20;;
64405;SDS011;50730;48.628;8.994;2023-09-12T13:12:29;6.07;;;3.83;;
64405;SDS011;50730;48.628;8.994;2023-09-12T13:14:58;5.78;;;3.95;;
64405;SDS011;50730;48.628;8.994;2023-09-12T13:17:25;8.07;;;3.83;;
64405;SDS011;50730;48.628;8.994;2023-09-12T13:19:52;5.53;;;3.58;;
64405;SDS011;50730;48.628;8.994;2023-09-12T13:22:19;6.60;;;3.90;;
64405;SDS011;50730;48.628;8.994;2023-09-12T13:24:50;8.98;;;3.83;;
64405;SDS011;50730;48.628;8.994;2023-09-12T13:27:17;8.90;;;4.68;;
64405;SDS011;50730;48.628;8.994;2023-09-12T13:29:44;10.30;;;4.20;;
64405;SDS011;50730;48.628;8.994;2023-09-12T13:32:14;7.30;;;4.28;;
64405;SDS011;50730;48.628;8.994;2023-09-12T13:34:43;8.27;;;4.38;;
64405;SDS011;50730;48.628;8.994;2023-09-12T13:37:10;10.00;;;4.57;;
64405;SDS011;50730;48.628;8.994;2023-09-12T13:39:37;7.22;;;4.43;;
64405;SDS011;50730;48.628;8.994;2023-09-12T13:42:05;11.20;;;4.40;;
64405;SDS011;50730;48.628;8.994;2023-09-12T13:44:33;10.68;;;4.80;;
64405;SDS011;50730;48.628;8.994;2023-09-12T13:47:00;12.25;;;4.55;;
64405;SDS011;50730;48.628;8.994;2023-09-12T13:49:29;10.85;;;4.35;;
64405;SDS011;50730;48.628;8.994;2023-09-12T13:51:56;8.70;;;4.38;;
64405;SDS011;50730;48.628;8.994;2023-09-12T13:54:23;7.97;;;4.28;;
64405;SDS011;50730;48.628;8.994;2023-09-12T13:56:50;9.13;;;4.45;;
64405;SDS011;50730;48.628;8.994;2023-09-12T13:59:17;6.00;;;4.05;;
64405;SDS011;50730;48.628;8.994;2023-09-12T14:01:45;7.65;;;4.38;;
64405;SDS011;50730;48.628;8.994;2023-09-12T14:04:12;9.38;;;4.35;;
64405;SDS011;50730;48.628;8.994;2023-09-12T14:06:42;10.02;;;4.22;;
64405;SDS011;50730;48.628;8.994;2023-09-12T14:09:09;12.88;;;5.32;;
64405;SDS011;50730;48.628;8.994;2023-09-12T14:11:36;10.25;;;4.50;;
64405;SDS011;50730;48.628;8.994;2023-09-12T14:14:04;8.27;;;4.38;;
64405;SDS011;50730;48.628;8.994;2023-09-12T14:16:31;8.48;;;4.97;;
64405;SDS011;50730;48.628;8.994;2023-09-12T14:18:58;7.82;;;4.60;;
64405;SDS011;50730;48.628;8.994;2023-09-12T14:21:25;10.48;;;5.20;;
64405;SDS011;50730;48.628;8.994;2023-09-12T14:23:54;11.80;;;5.28;;
64405;SDS011;50730;48.628;8.994;2023-09-12T14:26:21;9.25;;;4.57;;
64405;SDS011;50730;48.628;8.994;2023-09-12T14:28:49;9.63;;;5.07;;
64405;SDS011;50730;48.628;8.994;2023-09-12T14:31:16;10.10;;;5.18;;
64405;SDS011;50730;48.628;8.994;2023-09-12T14:33:44;10.02;;;4.78;;
64405;SDS011;50730;48.628;8.994;2023-09-12T14:36:11;10.13;;;5.15;;
64405;SDS011;50730;48.628;8.994;2023-09-12T14:38:38;6.82;;;4.65;;
64405;SDS011;50730;48.628;8.994;2023-09-12T14:41:06;7.47;;;5.28;;
64405;SDS011;50730;48.628;8.994;2023-09-12T14:43:34;10.40;;;4.80;;
64405;SDS011;50730;48.628;8.994;2023-09-12T14:46:01;9.27;;;5.28;;
64405;SDS011;50730;48.628;8.994;2023-09-12T14:48:29;9.55;;;4.72;;
64405;SDS011;50730;48.628;8.994;2023-09-12T14:50:58;9.10;;;4.90;;
64405;SDS011;50730;48.628;8.994;2023-09-12T14:53:27;10.20;;;4.80;;
64405;SDS011;50730;48.628;8.994;2023-09-12T14:55:54;7.70;;;4.75;;
64405;SDS011;50730;48.628;8.994;2023-09-12T14:58:22;7.97;;;5.28;;
64405;SDS011;50730;48.628;8.994;2023-09-12T15:00:50;11.23;;;4.75;;